createdAt,value
2023-01-13T08:28:24.000Z,-7.02
2023-01-13T08:33:27.871Z,-6.90
2023-01-13T08:38:31.523Z,-6.94
2023-01-13T08:43:36.457Z,-6.88
2023-01-13T08:48:39.827Z,-6.91
2023-01-13T08:53:43.481Z,-6.83
2023-01-13T08:58:48.354Z,-6.82
2023-01-13T09:03:52.200Z,-6.88
2023-01-13T09:08:57.862Z,-6.88
2023-01-13T09:14:03.605Z,-6.88
2023-01-13T09:19:07.024Z,-6.87
2023-01-13T09:24:17.919Z,-6.95
2023-01-13T09:29:25.131Z,-6.94
2023-01-13T09:34:46.498Z,-7.01
2023-01-13T09:39:57.463Z,-7.09
2023-01-13T09:45:07.177Z,-6.99
2023-01-13T09:50:39.111Z,-7.00
2023-01-13T09:55:45.371Z,-7.12
2023-01-13T10:00:54.945Z,-7.21
2023-01-13T10:06:02.163Z,-7.20
2023-01-13T10:11:31.963Z,-7.03
2023-01-13T10:16:53.581Z,-7.04
2023-01-13T10:22:10.871Z,-6.91
2023-01-13T10:27:19.764Z,-6.90
2023-01-13T10:32:25.943Z,-7.04
2023-01-13T10:37:29.700Z,-7.19
2023-01-13T10:42:33.025Z,-6.86
2023-01-13T10:47:38.033Z,-6.82
2023-01-13T10:52:57.320Z,-6.68
2023-01-13T10:58:12.915Z,-6.58
2023-01-13T11:03:22.195Z,-6.68
2023-01-13T11:08:30.933Z,-6.66
2023-01-13T11:14:01.046Z,-6.61
2023-01-13T11:20:35.475Z,-6.54
2023-01-13T11:25:05.939Z,-6.33
2023-01-13T11:30:13.717Z,-6.20
2023-01-13T11:35:18.639Z,-6.41
2023-01-13T11:40:34.011Z,-6.62
2023-01-13T11:45:54.391Z,-6.49
2023-01-13T11:51:02.514Z,-6.47
2023-01-13T11:56:31.215Z,-6.38
2023-01-13T12:01:45.922Z,-6.37
2023-01-13T12:06:53.608Z,-6.33
2023-01-13T12:12:23.027Z,-6.34
2023-01-13T12:17:30.144Z,-6.29
2023-01-13T12:22:36.040Z,-6.34
2023-01-13T12:27:45.900Z,-6.26
2023-01-13T12:32:52.046Z,-6.23
2023-01-13T12:37:59.284Z,-6.29
2023-01-13T12:43:26.782Z,-6.26
2023-01-13T12:49:26.941Z,-6.27
2023-01-13T12:54:34.924Z,-6.08
2023-01-13T12:59:39.916Z,-5.84
2023-01-13T13:04:44.885Z,-6.05
2023-01-13T13:09:52.532Z,-6.08
2023-01-13T13:15:20.270Z,-6.05
2023-01-13T13:20:42.912Z,-6.30
2023-01-13T13:26:00.141Z,-6.34
2023-01-13T13:31:18.320Z,-6.41
2023-01-13T13:36:43.549Z,-6.51
2023-01-13T13:42:06.882Z,-6.39
2023-01-13T13:47:17.884Z,-6.31
2023-01-13T13:52:24.259Z,-6.19
2023-01-13T13:57:31.688Z,-6.13
2023-01-13T14:02:38.678Z,-6.15
2023-01-13T14:07:46.569Z,-6.35
2023-01-13T14:12:50.326Z,-6.51
2023-01-13T14:17:55.529Z,-6.55
2023-01-13T14:23:01.660Z,-6.49
2023-01-13T14:28:10.001Z,-6.53
2023-01-13T14:33:17.155Z,-6.73
2023-01-13T14:38:21.014Z,-6.70
2023-01-13T14:43:26.516Z,-6.73
2023-01-13T14:48:50.846Z,-6.89
2023-01-13T14:53:55.947Z,-6.96
2023-01-13T14:59:03.688Z,-7.24
2023-01-13T15:04:17.703Z,-6.77
2023-01-13T15:09:25.019Z,-6.92
2023-01-13T15:14:33.790Z,-6.86
2023-01-13T15:19:37.257Z,-6.93
2023-01-13T15:24:42.499Z,-6.86
2023-01-13T15:29:46.385Z,-6.96
2023-01-13T15:34:50.785Z,-7.00
2023-01-13T15:39:55.696Z,-6.90
2023-01-13T15:45:16.661Z,-7.03
2023-01-13T15:50:24.702Z,-7.12
2023-01-13T15:55:29.568Z,-7.07
2023-01-13T16:00:35.456Z,-7.28
2023-01-13T16:05:38.803Z,-7.28
2023-01-13T16:10:44.683Z,-7.39
2023-01-13T16:15:49.320Z,-7.45
2023-01-13T16:20:55.335Z,-7.45
2023-01-13T16:26:05.334Z,-7.20
2023-01-13T16:31:17.119Z,-6.95
2023-01-13T16:36:21.350Z,-7.03
2023-01-13T16:41:26.176Z,-7.05
2023-01-13T16:46:33.553Z,-7.32
2023-01-13T16:51:38.956Z,-7.46
2023-01-13T16:56:47.295Z,-7.41
2023-01-13T17:01:51.091Z,-7.25
2023-01-13T17:06:56.663Z,-7.50
2023-01-13T17:12:01.420Z,-7.44
2023-01-13T17:17:04.907Z,-7.44
2023-01-13T17:22:10.187Z,-7.43
2023-01-13T17:27:17.283Z,-7.46
2023-01-13T17:32:21.188Z,-7.46
2023-01-13T17:37:24.646Z,-7.39
2023-01-13T17:42:31.225Z,-7.53
2023-01-13T17:47:36.038Z,-7.53
2023-01-13T17:52:39.832Z,-7.59
2023-01-13T17:57:45.447Z,-7.70
2023-01-13T18:02:48.935Z,-7.95
2023-01-13T18:07:53.241Z,-8.04
2023-01-13T18:13:00.386Z,-8.10
2023-01-13T18:32:09.032Z,-7.90
2023-01-13T18:37:13.534Z,-7.89
2023-01-13T18:42:34.458Z,-7.94
2023-01-13T18:47:42.133Z,-7.84
2023-01-13T18:52:45.541Z,-7.82
2023-01-13T18:57:49.016Z,-7.70
2023-01-13T19:09:17.738Z,-7.71
2023-01-13T19:14:50.711Z,-7.75
2023-01-13T19:20:11.419Z,-7.91
2023-01-13T19:25:52.133Z,-7.78
2023-01-13T19:31:02.316Z,-7.69
2023-01-13T19:36:17.465Z,-7.76
2023-01-13T19:42:24.195Z,-7.70
2023-01-13T19:47:40.577Z,-7.89
2023-01-13T19:52:44.143Z,-7.71
2023-01-13T19:57:50.434Z,-7.59
2023-01-13T20:02:56.793Z,-7.70
2023-01-13T20:08:02.569Z,-7.90
2023-01-13T20:13:11.591Z,-8.02
2023-01-13T20:18:18.882Z,-8.04
2023-01-13T20:23:22.823Z,-8.18
2023-01-13T20:28:26.783Z,-8.04
2023-01-13T20:33:31.861Z,-8.03
2023-01-13T20:38:38.463Z,-8.11
2023-01-13T20:43:41.975Z,-8.02
2023-01-13T20:48:50.438Z,-8.11
2023-01-13T20:54:00.483Z,-8.08
2023-01-13T20:59:04.039Z,-8.05
2023-01-13T21:04:12.933Z,-8.16
2023-01-13T21:09:19.164Z,-8.29
2023-01-13T21:20:04.656Z,-8.19
2023-01-13T21:25:08.786Z,-8.32
2023-01-13T21:30:15.177Z,-8.29
2023-01-13T21:35:20.605Z,-8.49
2023-01-13T21:40:24.384Z,-8.41
2023-01-13T21:45:56.815Z,-8.55
2023-01-13T21:51:03.123Z,-8.65
2023-01-13T21:56:07.863Z,-8.72
2023-01-13T22:07:00.457Z,-8.45
2023-01-13T22:12:22.720Z,-8.44
2023-01-13T22:17:33.483Z,-8.60
2023-01-13T22:22:38.349Z,-8.68
2023-01-13T22:27:44.743Z,-8.69
2023-01-13T22:32:50.399Z,-8.71
2023-01-13T22:37:53.875Z,-8.55
2023-01-13T22:43:06.399Z,-8.59
2023-01-13T22:48:10.071Z,-8.48
2023-01-13T22:53:13.458Z,-8.46
2023-01-13T22:58:18.234Z,-8.40
2023-01-13T23:03:21.729Z,-8.35
